sensor_id;sensor_type;location;lat;lon;timestamp;temperature;humidity
14317;DHT22;7242;50.858;6.586;2023-02-07T00:00:23;2.90;99.90
14317;DHT22;7242;50.858;6.586;2023-02-07T00:03:24;2.90;99.90
14317;DHT22;7242;50.858;6.586;2023-02-07T00:06:30;2.80;99.90
14317;DHT22;7242;50.858;6.586;2023-02-07T00:09:31;2.80;99.90
14317;DHT22;7242;50.858;6.586;2023-02-07T00:12:32;2.80;99.90
14317;DHT22;7242;50.858;6.586;2023-02-07T00:15:33;2.80;99.90
14317;DHT22;7242;50.858;6.586;2023-02-07T00:18:34;2.70;99.90
14317;DHT22;7242;50.858;6.586;2023-02-07T00:21:35;2.70;99.90
14317;DHT22;7242;50.858;6.586;2023-02-07T00:24:36;2.50;99.90
14317;DHT22;7242;50.858;6.586;2023-02-07T00:27:37;2.50;99.90
14317;DHT22;7242;50.858;6.586;2023-02-07T00:30:37;2.30;99.90
14317;DHT22;7242;50.858;6.586;2023-02-07T00:33:40;2.30;99.90
14317;DHT22;7242;50.858;6.586;2023-02-07T00:36:43;2.20;99.90
14317;DHT22;7242;50.858;6.586;2023-02-07T00:39:44;2.20;99.90
14317;DHT22;7242;50.858;6.586;2023-02-07T00:42:44;2.20;99.90
14317;DHT22;7242;50.858;6.586;2023-02-07T00:45:45;2.00;99.90
14317;DHT22;7242;50.858;6.586;2023-02-07T00:48:46;2.00;99.90
14317;DHT22;7242;50.858;6.586;2023-02-07T00:51:47;2.00;99.90
14317;DHT22;7242;50.858;6.586;2023-02-07T00:54:48;1.90;99.90
14317;DHT22;7242;50.858;6.586;2023-02-07T00:57:48;1.90;99.90
14317;DHT22;7242;50.858;6.586;2023-02-07T01:00:50;1.90;99.90
14317;DHT22;7242;50.858;6.586;2023-02-07T01:03:50;1.80;99.90
14317;DHT22;7242;50.858;6.586;2023-02-07T01:06:52;1.70;99.90
14317;DHT22;7242;50.858;6.586;2023-02-07T01:09:52;1.70;99.90
14317;DHT22;7242;50.858;6.586;2023-02-07T01:12:53;1.60;99.90
14317;DHT22;7242;50.858;6.586;2023-02-07T01:18:55;1.60;99.90
14317;DHT22;7242;50.858;6.586;2023-02-07T01:21:57;1.50;99.90
14317;DHT22;7242;50.858;6.586;2023-02-07T01:28:00;1.60;99.90
14317;DHT22;7242;50.858;6.586;2023-02-07T01:31:06;1.60;99.90
14317;DHT22;7242;50.858;6.586;2023-02-07T01:34:10;1.60;99.90
14317;DHT22;7242;50.858;6.586;2023-02-07T01:40:12;1.40;99.90
14317;DHT22;7242;50.858;6.586;2023-02-07T01:43:16;1.50;99.90
14317;DHT22;7242;50.858;6.586;2023-02-07T01:46:18;1.50;99.90
14317;DHT22;7242;50.858;6.586;2023-02-07T01:49:26;1.40;99.90
14317;DHT22;7242;50.858;6.586;2023-02-07T01:52:35;1.50;99.90
14317;DHT22;7242;50.858;6.586;2023-02-07T01:55:37;1.50;99.90
14317;DHT22;7242;50.858;6.586;2023-02-07T01:58:38;1.40;99.90
14317;DHT22;7242;50.858;6.586;2023-02-07T02:01:41;1.50;99.90
14317;DHT22;7242;50.858;6.586;2023-02-07T02:04:42;1.50;99.90
14317;DHT22;7242;50.858;6.586;2023-02-07T02:25:04;1.60;99.90
14317;DHT22;7242;50.858;6.586;2023-02-07T02:38:33;1.40;99.90
14317;DHT22;7242;50.858;6.586;2023-02-07T02:45:01;1.40;99.90
14317;DHT22;7242;50.858;6.586;2023-02-07T02:48:05;1.50;99.90
14317;DHT22;7242;50.858;6.586;2023-02-07T02:51:08;1.50;99.90
14317;DHT22;7242;50.858;6.586;2023-02-07T02:54:45;1.40;99.90
14317;DHT22;7242;50.858;6.586;2023-02-07T03:11:53;1.10;99.90
14317;DHT22;7242;50.858;6.586;2023-02-07T03:15:03;1.00;99.90
14317;DHT22;7242;50.858;6.586;2023-02-07T03:18:13;1.00;99.90
14317;DHT22;7242;50.858;6.586;2023-02-07T03:21:23;1.10;99.90
14317;DHT22;7242;50.858;6.586;2023-02-07T03:24:29;1.00;99.90
14317;DHT22;7242;50.858;6.586;2023-02-07T03:30:35;1.00;99.90
14317;DHT22;7242;50.858;6.586;2023-02-07T03:33:37;1.00;99.90
14317;DHT22;7242;50.858;6.586;2023-02-07T03:36:56;1.00;99.90
14317;DHT22;7242;50.858;6.586;2023-02-07T03:39:58;1.00;99.90
14317;DHT22;7242;50.858;6.586;2023-02-07T03:43:12;1.00;99.90
14317;DHT22;7242;50.858;6.586;2023-02-07T03:46:14;1.10;99.90
14317;DHT22;7242;50.858;6.586;2023-02-07T03:49:15;1.20;99.90
14317;DHT22;7242;50.858;6.586;2023-02-07T03:58:19;1.30;99.90
14317;DHT22;7242;50.858;6.586;2023-02-07T04:04:20;1.30;99.90
14317;DHT22;7242;50.858;6.586;2023-02-07T04:07:21;1.30;99.90
14317;DHT22;7242;50.858;6.586;2023-02-07T04:10:22;1.30;99.90
14317;DHT22;7242;50.858;6.586;2023-02-07T04:13:23;1.30;99.90
14317;DHT22;7242;50.858;6.586;2023-02-07T04:19:24;1.30;99.90
14317;DHT22;7242;50.858;6.586;2023-02-07T04:22:25;1.30;99.90
14317;DHT22;7242;50.858;6.586;2023-02-07T04:28:27;1.30;99.90
14317;DHT22;7242;50.858;6.586;2023-02-07T04:34:29;1.30;99.90
14317;DHT22;7242;50.858;6.586;2023-02-07T04:37:30;1.30;99.90
14317;DHT22;7242;50.858;6.586;2023-02-07T04:43:34;1.30;99.90
14317;DHT22;7242;50.858;6.586;2023-02-07T04:46:35;1.30;99.90
14317;DHT22;7242;50.858;6.586;2023-02-07T04:49:36;1.30;99.90
14317;DHT22;7242;50.858;6.586;2023-02-07T04:52:36;1.10;99.90
14317;DHT22;7242;50.858;6.586;2023-02-07T04:55:39;1.10;99.90
14317;DHT22;7242;50.858;6.586;2023-02-07T04:58:40;1.00;99.90
14317;DHT22;7242;50.858;6.586;2023-02-07T05:10:44;0.70;99.90
14317;DHT22;7242;50.858;6.586;2023-02-07T05:16:46;0.70;99.90
14317;DHT22;7242;50.858;6.586;2023-02-07T05:19:47;0.70;99.90
14317;DHT22;7242;50.858;6.586;2023-02-07T05:22:48;0.70;99.90
14317;DHT22;7242;50.858;6.586;2023-02-07T05:25:48;0.60;99.90
14317;DHT22;7242;50.858;6.586;2023-02-07T05:28:49;0.60;99.90
14317;DHT22;7242;50.858;6.586;2023-02-07T05:35:10;0.50;99.90
14317;DHT22;7242;50.858;6.586;2023-02-07T05:38:14;0.50;99.90
14317;DHT22;7242;50.858;6.586;2023-02-07T05:41:15;0.50;99.90
14317;DHT22;7242;50.858;6.586;2023-02-07T05:44:15;0.50;99.90
14317;DHT22;7242;50.858;6.586;2023-02-07T05:50:17;0.50;99.90
14317;DHT22;7242;50.858;6.586;2023-02-07T05:53:18;0.50;99.90
14317;DHT22;7242;50.858;6.586;2023-02-07T05:59:20;0.50;99.90
14317;DHT22;7242;50.858;6.586;2023-02-07T06:02:20;0.50;99.90
14317;DHT22;7242;50.858;6.586;2023-02-07T06:08:24;0.60;99.90
14317;DHT22;7242;50.858;6.586;2023-02-07T06:17:27;0.60;99.90
14317;DHT22;7242;50.858;6.586;2023-02-07T06:23:28;0.60;99.90
14317;DHT22;7242;50.858;6.586;2023-02-07T06:29:30;0.60;99.90
14317;DHT22;7242;50.858;6.586;2023-02-07T06:38:33;0.30;99.90
14317;DHT22;7242;50.858;6.586;2023-02-07T06:41:34;0.30;99.90
14317;DHT22;7242;50.858;6.586;2023-02-07T06:53:37;0.20;99.90
14317;DHT22;7242;50.858;6.586;2023-02-07T06:56:38;0.20;99.90
14317;DHT22;7242;50.858;6.586;2023-02-07T07:02:40;0.30;99.90
14317;DHT22;7242;50.858;6.586;2023-02-07T07:20:52;0.50;99.90
14317;DHT22;7242;50.858;6.586;2023-02-07T07:32:57;0.70;99.90
14317;DHT22;7242;50.858;6.586;2023-02-07T07:35:59;0.80;99.90
14317;DHT22;7242;50.858;6.586;2023-02-07T07:42:01;0.90;99.90
14317;DHT22;7242;50.858;6.586;2023-02-07T07:51:27;0.90;99.90
14317;DHT22;7242;50.858;6.586;2023-02-07T07:54:28;1.20;99.90
14317;DHT22;7242;50.858;6.586;2023-02-07T08:03:32;6.40;99.90
14317;DHT22;7242;50.858;6.586;2023-02-07T08:06:32;7.60;99.90
14317;DHT22;7242;50.858;6.586;2023-02-07T08:18:36;10.60;99.90
14317;DHT22;7242;50.858;6.586;2023-02-07T08:21:37;10.00;99.90
14317;DHT22;7242;50.858;6.586;2023-02-07T08:30:41;7.40;99.90
14317;DHT22;7242;50.858;6.586;2023-02-07T08:33:41;6.50;99.90
14317;DHT22;7242;50.858;6.586;2023-02-07T08:39:43;5.50;99.90
14317;DHT22;7242;50.858;6.586;2023-02-07T08:42:45;5.00;99.90
14317;DHT22;7242;50.858;6.586;2023-02-07T08:45:47;4.50;99.90
14317;DHT22;7242;50.858;6.586;2023-02-07T08:48:48;4.00;99.90
14317;DHT22;7242;50.858;6.586;2023-02-07T09:00:52;3.50;99.90
14317;DHT22;7242;50.858;6.586;2023-02-07T09:03:55;3.40;99.90
14317;DHT22;7242;50.858;6.586;2023-02-07T09:09:58;3.10;99.90
14317;DHT22;7242;50.858;6.586;2023-02-07T09:12:59;3.10;99.90
14317;DHT22;7242;50.858;6.586;2023-02-07T09:22:03;2.90;99.90
14317;DHT22;7242;50.858;6.586;2023-02-07T09:25:04;2.90;99.90
14317;DHT22;7242;50.858;6.586;2023-02-07T09:28:05;3.00;99.90
14317;DHT22;7242;50.858;6.586;2023-02-07T09:31:07;3.00;99.90
14317;DHT22;7242;50.858;6.586;2023-02-07T09:34:08;2.90;99.90
14317;DHT22;7242;50.858;6.586;2023-02-07T09:37:09;2.80;99.90
14317;DHT22;7242;50.858;6.586;2023-02-07T09:40:15;2.80;99.90
14317;DHT22;7242;50.858;6.586;2023-02-07T09:43:51;3.00;99.90
14317;DHT22;7242;50.858;6.586;2023-02-07T09:47:24;3.00;99.90
14317;DHT22;7242;50.858;6.586;2023-02-07T09:50:29;3.00;99.90
14317;DHT22;7242;50.858;6.586;2023-02-07T09:53:43;3.00;99.90
14317;DHT22;7242;50.858;6.586;2023-02-07T09:56:46;3.10;99.90
14317;DHT22;7242;50.858;6.586;2023-02-07T09:59:52;2.90;99.90
14317;DHT22;7242;50.858;6.586;2023-02-07T10:06:16;2.80;99.90
14317;DHT22;7242;50.858;6.586;2023-02-07T10:09:21;2.90;99.90
14317;DHT22;7242;50.858;6.586;2023-02-07T10:18:54;2.70;99.90
14317;DHT22;7242;50.858;6.586;2023-02-07T10:22:26;2.70;99.90
14317;DHT22;7242;50.858;6.586;2023-02-07T10:28:55;2.90;99.90
14317;DHT22;7242;50.858;6.586;2023-02-07T10:32:01;2.90;99.90
14317;DHT22;7242;50.858;6.586;2023-02-07T10:35:19;2.90;99.90
14317;DHT22;7242;50.858;6.586;2023-02-07T10:38:34;3.00;99.90
14317;DHT22;7242;50.858;6.586;2023-02-07T10:41:39;3.10;99.90
14317;DHT22;7242;50.858;6.586;2023-02-07T10:44:41;3.10;99.90
14317;DHT22;7242;50.858;6.586;2023-02-07T10:50:43;3.20;99.90
14317;DHT22;7242;50.858;6.586;2023-02-07T10:53:49;3.40;99.90
14317;DHT22;7242;50.858;6.586;2023-02-07T10:56:56;3.40;99.90
14317;DHT22;7242;50.858;6.586;2023-02-07T11:03:18;3.50;99.90
14317;DHT22;7242;50.858;6.586;2023-02-07T11:16:04;3.70;99.90
14317;DHT22;7242;50.858;6.586;2023-02-07T11:22:18;3.80;99.90
14317;DHT22;7242;50.858;6.586;2023-02-07T11:25:29;3.80;99.90
14317;DHT22;7242;50.858;6.586;2023-02-07T11:28:31;3.80;99.90
14317;DHT22;7242;50.858;6.586;2023-02-07T11:31:35;3.80;99.90
14317;DHT22;7242;50.858;6.586;2023-02-07T11:34:44;3.80;99.90
14317;DHT22;7242;50.858;6.586;2023-02-07T11:41:00;3.80;99.90
14317;DHT22;7242;50.858;6.586;2023-02-07T11:44:16;3.70;99.90
14317;DHT22;7242;50.858;6.586;2023-02-07T11:47:26;3.90;99.90
14317;DHT22;7242;50.858;6.586;2023-02-07T11:50:31;3.90;99.90
14317;DHT22;7242;50.858;6.586;2023-02-07T11:53:39;4.00;99.90
14317;DHT22;7242;50.858;6.586;2023-02-07T11:56:48;4.10;99.90
14317;DHT22;7242;50.858;6.586;2023-02-07T12:03:30;4.20;99.90
14317;DHT22;7242;50.858;6.586;2023-02-07T12:09:57;4.30;99.90
14317;DHT22;7242;50.858;6.586;2023-02-07T12:13:03;4.40;99.90
14317;DHT22;7242;50.858;6.586;2023-02-07T12:16:15;4.50;99.90
14317;DHT22;7242;50.858;6.586;2023-02-07T12:19:25;4.50;99.90
14317;DHT22;7242;50.858;6.586;2023-02-07T12:22:33;4.60;99.90
14317;DHT22;7242;50.858;6.586;2023-02-07T12:25:40;4.70;99.90
14317;DHT22;7242;50.858;6.586;2023-02-07T12:28:53;4.80;99.90
14317;DHT22;7242;50.858;6.586;2023-02-07T12:32:19;4.90;99.90
14317;DHT22;7242;50.858;6.586;2023-02-07T12:38:59;4.90;99.90
14317;DHT22;7242;50.858;6.586;2023-02-07T12:42:13;4.90;99.90
14317;DHT22;7242;50.858;6.586;2023-02-07T12:45:17;5.00;99.90
14317;DHT22;7242;50.858;6.586;2023-02-07T13:01:45;5.10;99.90
14317;DHT22;7242;50.858;6.586;2023-02-07T13:18:20;5.40;99.90
14317;DHT22;7242;50.858;6.586;2023-02-07T13:22:13;5.40;99.90
14317;DHT22;7242;50.858;6.586;2023-02-07T13:24:54;5.30;99.90
14317;DHT22;7242;50.858;6.586;2023-02-07T13:27:58;5.40;99.90
14317;DHT22;7242;50.858;6.586;2023-02-07T13:31:00;5.30;99.90
14317;DHT22;7242;50.858;6.586;2023-02-07T13:34:01;5.40;99.90
14317;DHT22;7242;50.858;6.586;2023-02-07T13:43:51;5.50;99.90
14317;DHT22;7242;50.858;6.586;2023-02-07T13:57:19;5.40;99.90
14317;DHT22;7242;50.858;6.586;2023-02-07T14:04:07;5.50;99.90
14317;DHT22;7242;50.858;6.586;2023-02-07T14:07:27;5.50;99.90
14317;DHT22;7242;50.858;6.586;2023-02-07T14:10:51;5.50;99.90
14317;DHT22;7242;50.858;6.586;2023-02-07T14:14:03;5.60;99.90
14317;DHT22;7242;50.858;6.586;2023-02-07T14:17:55;5.70;99.90
14317;DHT22;7242;50.858;6.586;2023-02-07T14:24:08;5.80;99.90
14317;DHT22;7242;50.858;6.586;2023-02-07T14:27:29;5.70;99.90
14317;DHT22;7242;50.858;6.586;2023-02-07T14:30:55;5.80;99.90
14317;DHT22;7242;50.858;6.586;2023-02-07T14:34:13;5.80;99.90
14317;DHT22;7242;50.858;6.586;2023-02-07T14:37:19;5.90;99.90
14317;DHT22;7242;50.858;6.586;2023-02-07T14:43:51;5.90;99.90
14317;DHT22;7242;50.858;6.586;2023-02-07T14:46:55;5.80;99.90
14317;DHT22;7242;50.858;6.586;2023-02-07T14:49:59;5.80;99.90
14317;DHT22;7242;50.858;6.586;2023-02-07T14:53:03;5.90;99.90
14317;DHT22;7242;50.858;6.586;2023-02-07T14:56:06;5.90;99.90
14317;DHT22;7242;50.858;6.586;2023-02-07T14:59:26;5.80;99.90
14317;DHT22;7242;50.858;6.586;2023-02-07T15:05:50;5.80;99.90
14317;DHT22;7242;50.858;6.586;2023-02-07T15:08:58;5.70;99.90
14317;DHT22;7242;50.858;6.586;2023-02-07T15:12:04;5.80;99.90
14317;DHT22;7242;50.858;6.586;2023-02-07T15:15:07;5.70;99.90
14317;DHT22;7242;50.858;6.586;2023-02-07T15:18:11;5.80;99.90
14317;DHT22;7242;50.858;6.586;2023-02-07T15:21:17;5.70;99.90
14317;DHT22;7242;50.858;6.586;2023-02-07T15:24:27;5.70;99.90
14317;DHT22;7242;50.858;6.586;2023-02-07T15:30:30;5.70;99.90
14317;DHT22;7242;50.858;6.586;2023-02-07T15:33:50;5.60;99.90
14317;DHT22;7242;50.858;6.586;2023-02-07T15:36:55;5.60;99.90
14317;DHT22;7242;50.858;6.586;2023-02-07T15:39:56;5.60;99.90
14317;DHT22;7242;50.858;6.586;2023-02-07T15:42:57;5.70;99.90
14317;DHT22;7242;50.858;6.586;2023-02-07T15:46:09;5.70;99.90
14317;DHT22;7242;50.858;6.586;2023-02-07T15:49:36;5.60;99.90
14317;DHT22;7242;50.858;6.586;2023-02-07T15:52:42;5.70;99.90
14317;DHT22;7242;50.858;6.586;2023-02-07T15:55:46;5.70;99.90
14317;DHT22;7242;50.858;6.586;2023-02-07T15:58:47;5.70;99.90
14317;DHT22;7242;50.858;6.586;2023-02-07T16:01:54;5.70;99.90
14317;DHT22;7242;50.858;6.586;2023-02-07T16:07:58;5.70;99.90
14317;DHT22;7242;50.858;6.586;2023-02-07T16:14:23;5.50;99.90
14317;DHT22;7242;50.858;6.586;2023-02-07T16:17:36;5.50;99.90
14317;DHT22;7242;50.858;6.586;2023-02-07T16:20:40;5.40;99.90
14317;DHT22;7242;50.858;6.586;2023-02-07T16:23:41;5.30;99.90
14317;DHT22;7242;50.858;6.586;2023-02-07T16:26:43;5.20;99.90
14317;DHT22;7242;50.858;6.586;2023-02-07T16:29:44;5.20;99.90
14317;DHT22;7242;50.858;6.586;2023-02-07T16:35:47;5.10;99.90
14317;DHT22;7242;50.858;6.586;2023-02-07T16:38:49;5.10;99.90
14317;DHT22;7242;50.858;6.586;2023-02-07T16:41:55;5.00;99.90
14317;DHT22;7242;50.858;6.586;2023-02-07T16:48:01;4.80;99.90
14317;DHT22;7242;50.858;6.586;2023-02-07T16:51:02;4.70;99.90
14317;DHT22;7242;50.858;6.586;2023-02-07T17:00:06;4.50;99.90
14317;DHT22;7242;50.858;6.586;2023-02-07T17:03:13;4.50;99.90
14317;DHT22;7242;50.858;6.586;2023-02-07T17:06:18;4.50;99.90
14317;DHT22;7242;50.858;6.586;2023-02-07T17:09:21;4.50;99.90
14317;DHT22;7242;50.858;6.586;2023-02-07T17:18:26;4.40;99.90
14317;DHT22;7242;50.858;6.586;2023-02-07T17:30:39;4.20;99.90
14317;DHT22;7242;50.858;6.586;2023-02-07T17:36:45;4.10;99.90
14317;DHT22;7242;50.858;6.586;2023-02-07T17:48:50;4.00;99.90
14317;DHT22;7242;50.858;6.586;2023-02-07T17:51:51;4.00;99.90
14317;DHT22;7242;50.858;6.586;2023-02-07T17:54:52;4.00;99.90
14317;DHT22;7242;50.858;6.586;2023-02-07T17:57:54;3.90;99.90
14317;DHT22;7242;50.858;6.586;2023-02-07T18:00:55;3.90;99.90
14317;DHT22;7242;50.858;6.586;2023-02-07T18:03:56;3.80;99.90
14317;DHT22;7242;50.858;6.586;2023-02-07T18:12:59;3.60;99.90
14317;DHT22;7242;50.858;6.586;2023-02-07T18:16:00;3.60;99.90
14317;DHT22;7242;50.858;6.586;2023-02-07T18:19:00;3.50;99.90
14317;DHT22;7242;50.858;6.586;2023-02-07T18:22:03;3.50;99.90
14317;DHT22;7242;50.858;6.586;2023-02-07T18:25:03;3.50;99.90
14317;DHT22;7242;50.858;6.586;2023-02-07T18:31:14;3.40;99.90
14317;DHT22;7242;50.858;6.586;2023-02-07T18:34:15;3.40;99.90
14317;DHT22;7242;50.858;6.586;2023-02-07T18:37:16;3.40;99.90
14317;DHT22;7242;50.858;6.586;2023-02-07T18:43:18;3.30;99.90
14317;DHT22;7242;50.858;6.586;2023-02-07T18:46:19;3.30;99.90
14317;DHT22;7242;50.858;6.586;2023-02-07T18:49:20;3.30;99.90
14317;DHT22;7242;50.858;6.586;2023-02-07T19:01:27;3.20;99.90
14317;DHT22;7242;50.858;6.586;2023-02-07T19:04:29;3.10;99.90
14317;DHT22;7242;50.858;6.586;2023-02-07T19:07:30;3.10;99.90
14317;DHT22;7242;50.858;6.586;2023-02-07T19:13:33;3.10;99.90
14317;DHT22;7242;50.858;6.586;2023-02-07T19:22:37;3.00;99.90
14317;DHT22;7242;50.858;6.586;2023-02-07T19:25:45;3.00;99.90
14317;DHT22;7242;50.858;6.586;2023-02-07T19:28:46;3.00;99.90
14317;DHT22;7242;50.858;6.586;2023-02-07T19:31:47;3.00;99.90
14317;DHT22;7242;50.858;6.586;2023-02-07T19:34:48;2.90;99.90
14317;DHT22;7242;50.858;6.586;2023-02-07T19:37:48;2.90;99.90
14317;DHT22;7242;50.858;6.586;2023-02-07T19:40:56;2.90;99.90
14317;DHT22;7242;50.858;6.586;2023-02-07T19:43:57;2.80;99.90
14317;DHT22;7242;50.858;6.586;2023-02-07T19:46:57;2.80;99.90
14317;DHT22;7242;50.858;6.586;2023-02-07T19:49:58;2.80;99.90
14317;DHT22;7242;50.858;6.586;2023-02-07T19:52:59;2.80;99.90
14317;DHT22;7242;50.858;6.586;2023-02-07T19:56:00;2.70;99.90
14317;DHT22;7242;50.858;6.586;2023-02-07T19:59:04;2.70;99.90
14317;DHT22;7242;50.858;6.586;2023-02-07T20:02:06;2.60;99.90
14317;DHT22;7242;50.858;6.586;2023-02-07T20:05:06;2.60;99.90
14317;DHT22;7242;50.858;6.586;2023-02-07T20:08:07;2.60;99.90
14317;DHT22;7242;50.858;6.586;2023-02-07T20:11:11;2.50;99.90
14317;DHT22;7242;50.858;6.586;2023-02-07T20:14:12;2.50;99.90
14317;DHT22;7242;50.858;6.586;2023-02-07T20:17:13;2.40;99.90
14317;DHT22;7242;50.858;6.586;2023-02-07T20:20:13;2.40;99.90
14317;DHT22;7242;50.858;6.586;2023-02-07T20:23:14;2.30;99.90
14317;DHT22;7242;50.858;6.586;2023-02-07T20:26:19;2.30;99.90
14317;DHT22;7242;50.858;6.586;2023-02-07T20:29:20;2.30;99.90
14317;DHT22;7242;50.858;6.586;2023-02-07T20:32:22;2.20;99.90
14317;DHT22;7242;50.858;6.586;2023-02-07T20:35:23;2.30;99.90
14317;DHT22;7242;50.858;6.586;2023-02-07T20:38:24;2.30;99.90
14317;DHT22;7242;50.858;6.586;2023-02-07T20:41:26;2.20;99.90
14317;DHT22;7242;50.858;6.586;2023-02-07T20:44:31;2.20;99.90
14317;DHT22;7242;50.858;6.586;2023-02-07T20:47:31;2.20;99.90
14317;DHT22;7242;50.858;6.586;2023-02-07T20:50:32;2.00;99.90
14317;DHT22;7242;50.858;6.586;2023-02-07T20:53:38;1.90;99.90
14317;DHT22;7242;50.858;6.586;2023-02-07T20:56:40;1.90;99.90
14317;DHT22;7242;50.858;6.586;2023-02-07T20:59:41;1.90;99.90
14317;DHT22;7242;50.858;6.586;2023-02-07T21:02:42;1.80;99.90
14317;DHT22;7242;50.858;6.586;2023-02-07T21:05:42;1.80;99.90
14317;DHT22;7242;50.858;6.586;2023-02-07T21:08:43;1.80;99.90
14317;DHT22;7242;50.858;6.586;2023-02-07T21:11:49;1.70;99.90
14317;DHT22;7242;50.858;6.586;2023-02-07T21:14:50;1.70;99.90
14317;DHT22;7242;50.858;6.586;2023-02-07T21:17:51;1.70;99.90
14317;DHT22;7242;50.858;6.586;2023-02-07T21:20:52;1.70;99.90
14317;DHT22;7242;50.858;6.586;2023-02-07T21:23:53;1.70;99.90
14317;DHT22;7242;50.858;6.586;2023-02-07T21:26:54;1.70;99.90
14317;DHT22;7242;50.858;6.586;2023-02-07T21:29:54;1.70;99.90
14317;DHT22;7242;50.858;6.586;2023-02-07T21:32:55;1.70;99.90
14317;DHT22;7242;50.858;6.586;2023-02-07T21:36:08;1.60;99.90
14317;DHT22;7242;50.858;6.586;2023-02-07T21:39:10;1.60;99.90
14317;DHT22;7242;50.858;6.586;2023-02-07T21:42:11;1.70;99.90
14317;DHT22;7242;50.858;6.586;2023-02-07T21:45:12;1.70;99.90
14317;DHT22;7242;50.858;6.586;2023-02-07T21:48:13;1.60;99.90
14317;DHT22;7242;50.858;6.586;2023-02-07T21:51:16;1.70;99.90
14317;DHT22;7242;50.858;6.586;2023-02-07T21:54:17;1.70;99.90
14317;DHT22;7242;50.858;6.586;2023-02-07T21:57:18;1.70;99.90
14317;DHT22;7242;50.858;6.586;2023-02-07T22:00:18;1.70;99.90
14317;DHT22;7242;50.858;6.586;2023-02-07T22:03:19;1.70;99.90
14317;DHT22;7242;50.858;6.586;2023-02-07T22:06:21;1.70;99.90
14317;DHT22;7242;50.858;6.586;2023-02-07T22:09:22;1.70;99.90
14317;DHT22;7242;50.858;6.586;2023-02-07T22:12:22;1.60;99.90
14317;DHT22;7242;50.858;6.586;2023-02-07T22:15:23;1.60;99.90
14317;DHT22;7242;50.858;6.586;2023-02-07T22:18:24;1.60;99.90
14317;DHT22;7242;50.858;6.586;2023-02-07T22:21:27;1.50;99.90
14317;DHT22;7242;50.858;6.586;2023-02-07T22:24:28;1.40;99.90
14317;DHT22;7242;50.858;6.586;2023-02-07T22:27:31;1.40;99.90
14317;DHT22;7242;50.858;6.586;2023-02-07T22:30:37;1.30;99.90
14317;DHT22;7242;50.858;6.586;2023-02-07T22:33:39;1.30;99.90
14317;DHT22;7242;50.858;6.586;2023-02-07T22:36:41;1.30;99.90
14317;DHT22;7242;50.858;6.586;2023-02-07T22:39:42;1.20;99.90
14317;DHT22;7242;50.858;6.586;2023-02-07T22:42:43;1.10;99.90
14317;DHT22;7242;50.858;6.586;2023-02-07T22:45:43;1.10;99.90
14317;DHT22;7242;50.858;6.586;2023-02-07T22:48:47;0.90;99.90
14317;DHT22;7242;50.858;6.586;2023-02-07T22:51:48;0.90;99.90
14317;DHT22;7242;50.858;6.586;2023-02-07T22:54:49;0.90;99.90
14317;DHT22;7242;50.858;6.586;2023-02-07T22:57:50;0.90;99.90
14317;DHT22;7242;50.858;6.586;2023-02-07T23:00:51;0.90;99.90
14317;DHT22;7242;50.858;6.586;2023-02-07T23:03:53;0.80;99.90
14317;DHT22;7242;50.858;6.586;2023-02-07T23:06:53;0.80;99.90
14317;DHT22;7242;50.858;6.586;2023-02-07T23:09:54;0.80;99.90
14317;DHT22;7242;50.858;6.586;2023-02-07T23:12:55;0.60;99.90
14317;DHT22;7242;50.858;6.586;2023-02-07T23:15:55;0.70;99.90
14317;DHT22;7242;50.858;6.586;2023-02-07T23:19:01;0.80;99.90
14317;DHT22;7242;50.858;6.586;2023-02-07T23:22:02;0.80;99.90
14317;DHT22;7242;50.858;6.586;2023-02-07T23:25:04;0.80;99.90
14317;DHT22;7242;50.858;6.586;2023-02-07T23:28:05;0.80;99.90
14317;DHT22;7242;50.858;6.586;2023-02-07T23:31:07;0.90;99.90
14317;DHT22;7242;50.858;6.586;2023-02-07T23:34:09;0.80;99.90
14317;DHT22;7242;50.858;6.586;2023-02-07T23:37:09;0.80;99.90
14317;DHT22;7242;50.858;6.586;2023-02-07T23:40:10;0.90;99.90
14317;DHT22;7242;50.858;6.586;2023-02-07T23:43:11;1.10;99.90
14317;DHT22;7242;50.858;6.586;2023-02-07T23:46:13;0.90;99.90
14317;DHT22;7242;50.858;6.586;2023-02-07T23:49:14;0.90;99.90
14317;DHT22;7242;50.858;6.586;2023-02-07T23:52:14;0.80;99.90
14317;DHT22;7242;50.858;6.586;2023-02-07T23:55:15;0.80;99.90
14317;DHT22;7242;50.858;6.586;2023-02-07T23:58:16;0.80;99.90
